Time;durP1;ratioP1;P1;durP2;ratioP2;P2;SDS_P1;SDS_P2;PMS_P1;PMS_P2;Temp;Humidity;BMP_temperature;BMP_pressure;BME280_temperature;BME280_humidity;BME280_pressure;Samples;Min_cycle;Max_cycle;Signal;HPM_P1;HPM_P2
2021/05/12 00:00:25;;;;;;;19.90;8.35;;;;;;;;;;5087556;28;20115;-68
2021/05/12 00:02:51;;;;;;;17.10;7.82;;;;;;;;;;5077483;28;20533;-67
2021/05/12 00:05:18;;;;;;;17.63;8.68;;;;;;;;;;5078500;28;20036;-68
2021/05/12 00:07:46;;;;;;;20.02;10.52;;;;;;;;;;5076461;28;20020;-68
2021/05/12 00:10:12;;;;;;;20.50;9.45;;;;;;;;;;5084667;28;20077;-68
2021/05/12 00:12:39;;;;;;;21.27;12.18;;;;;;;;;;5089501;28;20030;-68
2021/05/12 00:15:15;;;;;;;24.40;11.45;;;;;;;;;;5086020;28;20031;-68
2021/05/12 00:17:43;;;;;;;23.88;12.57;;;;;;;;;;5078294;28;20025;-68
2021/05/12 00:20:11;;;;;;;21.73;11.75;;;;;;;;;;5073772;28;20103;-68
2021/05/12 00:22:53;;;;;;;24.60;11.02;;;;;;;;;;5092987;28;20020;-68
2021/05/12 00:25:20;;;;;;;22.00;11.75;;;;;;;;;;5092094;28;20399;-68
2021/05/12 00:27:46;;;;;;;25.85;12.13;;;;;;;;;;5088298;28;20074;-68
2021/05/12 00:30:13;;;;;;;25.75;14.18;;;;;;;;;;5075982;28;20020;-68
2021/05/12 00:32:41;;;;;;;25.02;16.13;;;;;;;;;;5093666;28;20031;-68
2021/05/12 00:35:08;;;;;;;33.90;17.60;;;;;;;;;;5091045;28;20020;-68
2021/05/12 00:37:34;;;;;;;28.80;18.08;;;;;;;;;;5078411;28;20078;-68
2021/05/12 00:40:00;;;;;;;33.55;18.30;;;;;;;;;;5068953;28;20495;-68
2021/05/12 00:42:30;;;;;;;32.63;18.55;;;;;;;;;;5090285;28;20031;-68
2021/05/12 00:44:57;;;;;;;30.92;19.70;;;;;;;;;;5090169;28;20027;-68
2021/05/12 00:47:30;;;;;;;29.77;18.60;;;;;;;;;;5084022;28;20032;-68
2021/05/12 00:49:56;;;;;;;34.85;19.45;;;;;;;;;;5075746;28;20263;-68
2021/05/12 00:52:22;;;;;;;34.58;19.90;;;;;;;;;;5078381;28;20132;-68
2021/05/12 00:54:49;;;;;;;27.85;18.15;;;;;;;;;;5089973;28;20084;-68
2021/05/12 00:57:15;;;;;;;31.88;19.00;;;;;;;;;;5080213;28;20269;-68
2021/05/12 00:59:43;;;;;;;31.55;19.25;;;;;;;;;;5080059;28;20052;-68
2021/05/12 01:02:09;;;;;;;32.58;19.52;;;;;;;;;;5074398;28;20119;-68
2021/05/12 01:04:36;;;;;;;31.48;19.58;;;;;;;;;;5078413;28;20107;-68
2021/05/12 01:07:02;;;;;;;28.52;20.40;;;;;;;;;;5064002;28;20024;-68
2021/05/12 01:09:29;;;;;;;30.63;18.25;;;;;;;;;;5088798;28;20024;-67
2021/05/12 01:11:55;;;;;;;37.08;18.58;;;;;;;;;;5085808;28;20234;-68
2021/05/12 01:14:21;;;;;;;26.15;14.75;;;;;;;;;;5086972;28;20024;-68
2021/05/12 01:16:47;;;;;;;25.70;14.60;;;;;;;;;;5084536;28;20029;-68
2021/05/12 01:19:14;;;;;;;24.45;12.65;;;;;;;;;;5083637;28;20388;-68
2021/05/12 01:21:40;;;;;;;27.67;12.02;;;;;;;;;;5059094;28;20024;-68
2021/05/12 01:24:06;;;;;;;19.73;10.75;;;;;;;;;;5065554;28;20112;-68
2021/05/12 01:26:33;;;;;;;20.20;10.55;;;;;;;;;;5081799;28;20032;-68
2021/05/12 01:28:59;;;;;;;23.35;9.13;;;;;;;;;;5075630;28;20235;-68
2021/05/12 01:31:32;;;;;;;17.08;8.63;;;;;;;;;;5077324;28;20131;-68
2021/05/12 01:33:59;;;;;;;20.33;8.30;;;;;;;;;;5065924;28;20013;-68
2021/05/12 01:36:25;;;;;;;22.60;8.75;;;;;;;;;;5085408;28;20024;-68
2021/05/12 01:38:52;;;;;;;20.50;6.45;;;;;;;;;;5082254;28;20527;-68
2021/05/12 01:41:19;;;;;;;19.23;6.30;;;;;;;;;;5072912;28;20024;-68
2021/05/12 01:43:45;;;;;;;22.42;6.28;;;;;;;;;;5072470;28;20020;-68
2021/05/12 01:46:12;;;;;;;16.50;4.97;;;;;;;;;;5079496;28;20040;-68
2021/05/12 01:48:39;;;;;;;24.40;6.05;;;;;;;;;;5081258;28;20032;-68
2021/05/12 01:51:06;;;;;;;16.52;4.30;;;;;;;;;;5087228;28;20035;-68
2021/05/12 01:53:32;;;;;;;15.10;3.92;;;;;;;;;;5088607;28;20024;-68
2021/05/12 01:55:58;;;;;;;20.63;5.03;;;;;;;;;;5086044;28;20020;-68
2021/05/12 01:58:25;;;;;;;22.02;5.13;;;;;;;;;;5084218;28;20032;-68
2021/05/12 02:00:52;;;;;;;19.10;3.55;;;;;;;;;;5091668;28;20063;-67
2021/05/12 02:03:19;;;;;;;14.30;3.92;;;;;;;;;;5087975;28;20028;-67
2021/05/12 02:06:01;;;;;;;13.88;2.67;;;;;;;;;;5078812;28;20045;-67
2021/05/12 02:08:28;;;;;;;11.30;2.83;;;;;;;;;;5078445;28;20024;-68
2021/05/12 02:11:01;;;;;;;16.88;4.13;;;;;;;;;;5091304;28;20090;-67
2021/05/12 02:13:30;;;;;;;12.57;2.97;;;;;;;;;;5084388;28;20028;-68
2021/05/12 02:15:56;;;;;;;17.33;2.95;;;;;;;;;;5067404;28;20105;-68
2021/05/12 02:18:22;;;;;;;17.90;2.88;;;;;;;;;;5080415;28;20040;-67
2021/05/12 02:20:49;;;;;;;20.65;3.30;;;;;;;;;;5077725;28;20039;-67
2021/05/12 02:23:16;;;;;;;24.65;4.13;;;;;;;;;;5084495;28;20321;-68
2021/05/12 02:25:42;;;;;;;19.80;3.08;;;;;;;;;;5084295;28;20040;-67
2021/05/12 02:28:09;;;;;;;16.77;3.13;;;;;;;;;;5074559;28;20506;-67
2021/05/12 02:30:35;;;;;;;20.00;2.65;;;;;;;;;;5073892;28;20093;-67
2021/05/12 02:33:01;;;;;;;13.43;2.90;;;;;;;;;;5077933;28;20033;-67
2021/05/12 02:35:28;;;;;;;20.83;3.28;;;;;;;;;;5088202;28;20028;-68
2021/05/12 02:37:54;;;;;;;14.13;2.70;;;;;;;;;;5077771;28;20275;-68
2021/05/12 02:40:21;;;;;;;14.32;2.67;;;;;;;;;;5089815;28;20032;-68
2021/05/12 02:42:47;;;;;;;17.17;4.10;;;;;;;;;;5073371;28;20496;-67
2021/05/12 02:45:14;;;;;;;15.63;3.50;;;;;;;;;;5084949;28;20029;-68
2021/05/12 02:47:40;;;;;;;25.10;3.83;;;;;;;;;;5061904;28;20040;-68
2021/05/12 02:50:11;;;;;;;18.83;3.10;;;;;;;;;;5068920;28;20028;-68
2021/05/12 02:52:39;;;;;;;17.27;3.05;;;;;;;;;;5069486;28;20441;-67
2021/05/12 02:55:05;;;;;;;20.92;3.83;;;;;;;;;;5087827;28;20029;-67
2021/05/12 02:57:31;;;;;;;16.92;3.30;;;;;;;;;;5086809;28;20103;-67
2021/05/12 02:59:57;;;;;;;24.33;3.85;;;;;;;;;;5083625;28;20114;-68
2021/05/12 03:02:23;;;;;;;20.98;2.95;;;;;;;;;;5063808;28;20026;-67
2021/05/12 03:04:50;;;;;;;25.80;3.42;;;;;;;;;;5088751;28;20036;-68
2021/05/12 03:07:16;;;;;;;21.80;2.92;;;;;;;;;;5073396;28;20210;-68
2021/05/12 03:09:42;;;;;;;22.15;3.33;;;;;;;;;;5090758;28;20506;-68
2021/05/12 03:12:08;;;;;;;16.60;2.75;;;;;;;;;;5090328;28;20404;-67
2021/05/12 03:14:34;;;;;;;19.88;2.85;;;;;;;;;;5079486;28;20051;-68
2021/05/12 03:17:00;;;;;;;14.85;2.83;;;;;;;;;;5070139;28;20212;-68
2021/05/12 03:19:26;;;;;;;17.45;3.33;;;;;;;;;;5089608;28;20039;-67
2021/05/12 03:21:54;;;;;;;23.30;3.25;;;;;;;;;;5082432;28;20532;-67
2021/05/12 03:24:20;;;;;;;21.88;3.22;;;;;;;;;;5073280;28;20060;-68
2021/05/12 03:26:46;;;;;;;18.88;3.20;;;;;;;;;;5075252;28;20085;-68
2021/05/12 03:29:12;;;;;;;21.38;3.20;;;;;;;;;;5079949;28;20027;-68
2021/05/12 03:31:38;;;;;;;11.27;2.38;;;;;;;;;;5066366;28;20027;-68
2021/05/12 03:34:05;;;;;;;17.38;2.33;;;;;;;;;;5087995;28;20032;-67
2021/05/12 03:36:31;;;;;;;21.15;3.15;;;;;;;;;;5085982;28;20046;-68
2021/05/12 03:38:57;;;;;;;19.40;3.53;;;;;;;;;;5076871;28;20564;-68
2021/05/12 03:41:23;;;;;;;20.02;2.92;;;;;;;;;;5070460;28;20031;-68
2021/05/12 03:43:49;;;;;;;19.63;3.42;;;;;;;;;;5084004;28;20028;-68
2021/05/12 03:46:15;;;;;;;19.02;2.50;;;;;;;;;;5087936;28;20020;-68
2021/05/12 03:48:41;;;;;;;19.58;3.45;;;;;;;;;;5083295;28;20122;-68
2021/05/12 03:51:07;;;;;;;20.67;3.05;;;;;;;;;;5082923;28;20028;-68
2021/05/12 03:53:33;;;;;;;23.00;3.90;;;;;;;;;;5061128;28;20063;-68
2021/05/12 03:55:59;;;;;;;15.88;4.32;;;;;;;;;;5089167;28;20065;-68
2021/05/12 03:58:26;;;;;;;20.98;4.55;;;;;;;;;;5087603;28;20031;-67
2021/05/12 04:00:52;;;;;;;17.77;5.05;;;;;;;;;;5088655;28;20566;-68
2021/05/12 04:03:18;;;;;;;21.08;5.35;;;;;;;;;;5085374;28;20037;-67
2021/05/12 04:05:45;;;;;;;15.60;5.13;;;;;;;;;;5076121;28;20024;-68
2021/05/12 04:08:11;;;;;;;18.92;6.90;;;;;;;;;;5080952;28;20244;-68
2021/05/12 04:10:37;;;;;;;24.15;8.05;;;;;;;;;;5087402;28;20047;-68
2021/05/12 04:13:03;;;;;;;19.50;9.32;;;;;;;;;;5087517;28;20434;-68
2021/05/12 04:15:29;;;;;;;17.38;8.55;;;;;;;;;;5067645;28;20052;-67
2021/05/12 04:17:55;;;;;;;18.10;9.40;;;;;;;;;;5056198;28;20048;-68
2021/05/12 04:20:22;;;;;;;21.65;10.23;;;;;;;;;;5082427;28;20078;-67
2021/05/12 04:22:48;;;;;;;22.98;8.82;;;;;;;;;;5089113;28;20494;-68
2021/05/12 04:25:21;;;;;;;25.83;9.98;;;;;;;;;;5084287;28;20024;-68
2021/05/12 04:27:48;;;;;;;22.35;9.50;;;;;;;;;;5075152;28;20047;-68
2021/05/12 04:30:17;;;;;;;23.42;9.23;;;;;;;;;;5087108;28;20064;-68
2021/05/12 04:32:43;;;;;;;23.52;8.02;;;;;;;;;;5088916;28;20016;-68
2021/05/12 04:35:11;;;;;;;24.33;7.82;;;;;;;;;;5084084;28;20155;-68
2021/05/12 04:37:37;;;;;;;18.80;6.30;;;;;;;;;;5068971;28;20020;-68
2021/05/12 04:40:03;;;;;;;18.15;7.05;;;;;;;;;;5087921;28;20028;-68
2021/05/12 04:42:29;;;;;;;18.13;6.20;;;;;;;;;;5076820;28;20028;-68
2021/05/12 04:44:55;;;;;;;17.23;5.63;;;;;;;;;;5066544;28;20090;-68
2021/05/12 04:47:22;;;;;;;18.60;7.38;;;;;;;;;;5063452;28;20024;-68
2021/05/12 04:49:48;;;;;;;19.63;6.40;;;;;;;;;;5071224;28;20538;-68
2021/05/12 04:52:15;;;;;;;17.70;6.38;;;;;;;;;;5071034;28;20453;-68
2021/05/12 04:54:41;;;;;;;14.55;5.40;;;;;;;;;;5089134;28;20100;-67
2021/05/12 04:57:07;;;;;;;12.80;4.78;;;;;;;;;;5087861;28;20024;-68
2021/05/12 04:59:33;;;;;;;14.60;4.47;;;;;;;;;;5089688;28;20040;-68
2021/05/12 05:02:00;;;;;;;17.52;5.00;;;;;;;;;;5069116;28;21178;-68
2021/05/12 05:04:27;;;;;;;15.02;4.15;;;;;;;;;;5085289;28;20028;-68
2021/05/12 05:06:53;;;;;;;9.77;3.58;;;;;;;;;;5084383;28;20261;-68
2021/05/12 05:09:19;;;;;;;20.67;4.53;;;;;;;;;;5091180;28;20086;-67
2021/05/12 05:11:45;;;;;;;20.77;4.18;;;;;;;;;;5084955;28;20060;-67
2021/05/12 05:14:12;;;;;;;19.55;5.80;;;;;;;;;;5090276;28;20032;-68
2021/05/12 05:16:38;;;;;;;25.30;4.25;;;;;;;;;;5087300;28;20578;-68
2021/05/12 05:19:04;;;;;;;21.75;4.35;;;;;;;;;;5082096;28;20035;-68
2021/05/12 05:21:30;;;;;;;24.70;4.40;;;;;;;;;;5078456;28;20032;-68
2021/05/12 05:23:57;;;;;;;24.88;4.50;;;;;;;;;;5062484;28;20086;-67
2021/05/12 05:26:23;;;;;;;24.83;4.50;;;;;;;;;;5076702;28;20217;-67
2021/05/12 05:28:50;;;;;;;24.10;4.45;;;;;;;;;;5080806;28;20023;-68
2021/05/12 05:31:16;;;;;;;28.02;5.13;;;;;;;;;;5082746;28;20139;-68
2021/05/12 05:33:42;;;;;;;19.58;5.68;;;;;;;;;;5076589;28;20016;-68
2021/05/12 05:36:08;;;;;;;27.25;5.03;;;;;;;;;;5071606;28;20514;-68
2021/05/12 05:38:34;;;;;;;14.57;4.13;;;;;;;;;;5081169;28;20066;-68
2021/05/12 05:41:00;;;;;;;16.58;3.67;;;;;;;;;;5088411;28;20077;-68
2021/05/12 05:43:27;;;;;;;17.85;5.22;;;;;;;;;;5093281;28;20028;-68
2021/05/12 05:45:54;;;;;;;21.60;4.90;;;;;;;;;;5070695;28;20020;-68
2021/05/12 05:48:20;;;;;;;22.70;4.43;;;;;;;;;;5091636;28;20028;-68
2021/05/12 05:50:46;;;;;;;23.55;3.45;;;;;;;;;;5071780;28;20043;-67
2021/05/12 05:53:12;;;;;;;27.60;5.43;;;;;;;;;;5074411;28;20044;-67
2021/05/12 05:55:38;;;;;;;18.55;3.90;;;;;;;;;;5088277;28;20024;-68
2021/05/12 05:58:04;;;;;;;19.60;4.00;;;;;;;;;;5078405;28;20028;-68
2021/05/12 06:00:30;;;;;;;24.67;4.10;;;;;;;;;;5092771;28;20052;-66
2021/05/12 06:02:56;;;;;;;12.48;2.92;;;;;;;;;;5092660;28;20024;-67
2021/05/12 06:05:22;;;;;;;25.75;4.00;;;;;;;;;;5090763;28;20024;-67
2021/05/12 06:07:48;;;;;;;26.67;3.67;;;;;;;;;;5071370;28;20398;-67
2021/05/12 06:10:14;;;;;;;17.85;3.53;;;;;;;;;;5092219;28;20516;-67
2021/05/12 06:12:40;;;;;;;21.63;4.47;;;;;;;;;;5076284;28;20544;-67
2021/05/12 06:15:06;;;;;;;19.08;3.35;;;;;;;;;;5075269;28;20480;-67
2021/05/12 06:17:33;;;;;;;23.38;3.78;;;;;;;;;;5075086;28;20518;-67
2021/05/12 06:19:59;;;;;;;18.40;3.70;;;;;;;;;;5090757;28;20605;-67
2021/05/12 06:22:25;;;;;;;22.15;3.53;;;;;;;;;;5084476;28;20043;-67
2021/05/12 06:24:51;;;;;;;21.88;3.50;;;;;;;;;;5091483;28;20032;-67
2021/05/12 06:27:19;;;;;;;27.63;3.72;;;;;;;;;;5085713;28;20064;-67
2021/05/12 06:29:45;;;;;;;16.35;3.35;;;;;;;;;;5090576;28;20753;-67
2021/05/12 06:32:11;;;;;;;22.20;3.20;;;;;;;;;;5088859;28;20032;-67
2021/05/12 06:34:37;;;;;;;25.92;3.90;;;;;;;;;;5090784;28;20024;-67
2021/05/12 06:37:03;;;;;;;19.40;3.70;;;;;;;;;;5072032;28;20090;-67
2021/05/12 06:39:30;;;;;;;21.52;3.47;;;;;;;;;;5092321;28;20036;-68
2021/05/12 06:41:56;;;;;;;21.85;4.22;;;;;;;;;;5094915;28;20586;-68
2021/05/12 06:44:23;;;;;;;21.88;4.63;;;;;;;;;;5090761;28;20116;-67
2021/05/12 06:46:51;;;;;;;27.38;6.05;;;;;;;;;;5087242;28;20032;-68
2021/05/12 06:49:17;;;;;;;22.33;2.97;;;;;;;;;;5070819;28;20036;-67
2021/05/12 06:51:43;;;;;;;19.38;3.83;;;;;;;;;;5089863;28;20020;-67
2021/05/12 06:54:09;;;;;;;21.33;3.13;;;;;;;;;;5091200;28;20511;-67
2021/05/12 06:56:35;;;;;;;19.15;3.45;;;;;;;;;;5087170;28;20046;-67
2021/05/12 06:59:01;;;;;;;20.70;3.55;;;;;;;;;;5081180;28;20024;-67
2021/05/12 07:01:27;;;;;;;17.35;3.50;;;;;;;;;;5088722;28;20469;-66
2021/05/12 07:03:53;;;;;;;20.52;3.22;;;;;;;;;;5083912;28;20058;-67
2021/05/12 07:06:19;;;;;;;22.80;3.85;;;;;;;;;;5064200;28;20036;-67
2021/05/12 07:08:50;;;;;;;27.13;3.85;;;;;;;;;;5082005;28;20058;-67
2021/05/12 07:11:16;;;;;;;21.73;4.22;;;;;;;;;;5086828;28;20052;-66
2021/05/12 07:13:42;;;;;;;19.17;3.03;;;;;;;;;;5084032;28;20034;-67
2021/05/12 07:16:08;;;;;;;20.95;3.60;;;;;;;;;;5058097;28;20016;-67
2021/05/12 07:18:34;;;;;;;15.77;3.60;;;;;;;;;;5081775;28;20027;-69
2021/05/12 07:21:00;;;;;;;14.13;3.28;;;;;;;;;;5083481;28;20044;-67
2021/05/12 07:23:28;;;;;;;30.02;4.50;;;;;;;;;;5082585;28;20102;-68
2021/05/12 07:25:56;;;;;;;17.58;3.03;;;;;;;;;;5082400;28;20036;-67
2021/05/12 07:28:22;;;;;;;22.73;3.30;;;;;;;;;;5082467;28;20024;-67
2021/05/12 07:30:49;;;;;;;22.38;4.80;;;;;;;;;;5086228;28;20024;-66
2021/05/12 07:33:15;;;;;;;24.88;3.85;;;;;;;;;;5084845;28;20122;-67
2021/05/12 07:35:41;;;;;;;20.60;4.03;;;;;;;;;;5064592;28;20047;-67
2021/05/12 07:38:08;;;;;;;23.98;3.78;;;;;;;;;;5081066;28;20028;-67
2021/05/12 07:40:34;;;;;;;27.58;3.83;;;;;;;;;;5082933;28;20027;-67
2021/05/12 07:43:03;;;;;;;29.75;4.20;;;;;;;;;;5084145;28;20027;-66
2021/05/12 07:45:29;;;;;;;22.63;4.80;;;;;;;;;;5082649;28;20536;-66
2021/05/12 07:47:55;;;;;;;18.90;3.00;;;;;;;;;;5079506;28;20095;-67
2021/05/12 07:50:21;;;;;;;20.50;5.68;;;;;;;;;;5085582;28;20032;-66
2021/05/12 07:52:47;;;;;;;11.38;2.38;;;;;;;;;;5081797;28;20028;-67
2021/05/12 07:55:13;;;;;;;19.85;4.53;;;;;;;;;;5069364;28;20564;-67
2021/05/12 07:57:40;;;;;;;23.75;3.60;;;;;;;;;;5080883;28;20437;-64
2021/05/12 08:00:07;;;;;;;17.17;2.88;;;;;;;;;;5071066;28;20066;-67
2021/05/12 08:02:33;;;;;;;13.48;3.25;;;;;;;;;;5080191;28;20403;-67
2021/05/12 08:04:59;;;;;;;21.52;4.07;;;;;;;;;;5084428;28;20021;-67
2021/05/12 08:07:25;;;;;;;13.00;2.80;;;;;;;;;;5080560;28;20020;-67
2021/05/12 08:09:51;;;;;;;20.35;3.67;;;;;;;;;;5079939;28;20073;-67
2021/05/12 08:12:18;;;;;;;16.90;3.00;;;;;;;;;;5085592;28;20024;-66
2021/05/12 08:14:44;;;;;;;19.95;2.97;;;;;;;;;;5069083;28;20032;-67
2021/05/12 08:17:10;;;;;;;19.85;3.55;;;;;;;;;;5082748;28;20016;-67
2021/05/12 08:19:36;;;;;;;15.40;3.13;;;;;;;;;;5085312;28;20036;-66
2021/05/12 08:22:06;;;;;;;22.25;3.80;;;;;;;;;;5085127;28;20090;-67
2021/05/12 08:24:32;;;;;;;21.13;3.42;;;;;;;;;;5089944;28;20028;-67
2021/05/12 08:27:01;;;;;;;19.02;3.30;;;;;;;;;;5087036;28;20020;-67
2021/05/12 08:29:27;;;;;;;18.00;3.20;;;;;;;;;;5080930;28;20135;-67
2021/05/12 08:31:53;;;;;;;16.35;2.60;;;;;;;;;;5085282;28;20100;-67
2021/05/12 08:34:19;;;;;;;14.02;2.75;;;;;;;;;;5079719;28;20020;-67
2021/05/12 08:36:45;;;;;;;22.38;4.50;;;;;;;;;;5083900;28;20016;-68
2021/05/12 08:39:11;;;;;;;16.77;3.40;;;;;;;;;;5065298;28;20082;-65
2021/05/12 08:41:40;;;;;;;15.73;3.25;;;;;;;;;;5081618;28;20090;-66
2021/05/12 08:44:07;;;;;;;11.88;2.67;;;;;;;;;;5085499;28;20031;-67
2021/05/12 08:46:34;;;;;;;16.17;2.70;;;;;;;;;;5087932;28;20032;-67
2021/05/12 08:49:01;;;;;;;16.80;2.80;;;;;;;;;;5087200;28;20016;-68
2021/05/12 08:51:27;;;;;;;23.05;5.40;;;;;;;;;;5090015;28;20560;-67
2021/05/12 08:53:56;;;;;;;15.23;2.80;;;;;;;;;;5092173;28;20020;-67
2021/05/12 08:56:22;;;;;;;15.93;3.22;;;;;;;;;;5084359;28;20073;-67
2021/05/12 08:58:49;;;;;;;20.42;2.78;;;;;;;;;;5087727;28;20028;-67
2021/05/12 09:01:18;;;;;;;13.85;2.35;;;;;;;;;;5070453;28;20458;-67
2021/05/12 09:03:44;;;;;;;16.10;2.13;;;;;;;;;;5084334;28;20455;-67
2021/05/12 09:06:10;;;;;;;15.68;3.10;;;;;;;;;;5083659;28;20028;-67
2021/05/12 09:08:37;;;;;;;16.83;3.17;;;;;;;;;;5079208;28;20040;-67
2021/05/12 09:11:03;;;;;;;13.55;2.58;;;;;;;;;;5091666;28;20024;-67
2021/05/12 09:13:30;;;;;;;14.10;2.85;;;;;;;;;;5086308;28;20492;-67
2021/05/12 09:16:15;;;;;;;14.13;2.85;;;;;;;;;;5087694;28;20102;-67
2021/05/12 09:18:41;;;;;;;21.30;3.35;;;;;;;;;;5081126;28;20481;-67
2021/05/12 09:21:07;;;;;;;18.02;2.92;;;;;;;;;;5084856;28;20028;-66
2021/05/12 09:23:40;;;;;;;18.20;3.00;;;;;;;;;;5085066;28;20028;-68
2021/05/12 09:26:16;;;;;;;21.30;3.20;;;;;;;;;;5083494;28;20035;-67
2021/05/12 09:28:43;;;;;;;17.52;3.53;;;;;;;;;;5080792;28;20060;-67
2021/05/12 09:31:13;;;;;;;18.80;2.83;;;;;;;;;;5086033;28;20540;-67
2021/05/12 09:33:40;;;;;;;17.85;2.58;;;;;;;;;;5079507;28;20059;-67
2021/05/12 09:36:07;;;;;;;18.55;2.67;;;;;;;;;;5084943;28;20101;-67
2021/05/12 09:38:34;;;;;;;14.20;3.20;;;;;;;;;;5078619;28;20036;-67
2021/05/12 09:41:02;;;;;;;12.77;3.00;;;;;;;;;;5072197;28;20039;-67
2021/05/12 09:43:29;;;;;;;17.85;2.78;;;;;;;;;;5052488;28;20503;-66
2021/05/12 09:46:14;;;;;;;14.38;2.50;;;;;;;;;;5065835;28;20035;-67
2021/05/12 09:48:40;;;;;;;21.00;3.05;;;;;;;;;;5063883;28;21245;-67
2021/05/12 09:51:15;;;;;;;16.27;2.67;;;;;;;;;;5064141;28;20028;-66
2021/05/12 09:53:59;;;;;;;12.23;3.42;;;;;;;;;;5082213;28;20104;-67
2021/05/12 09:56:38;;;;;;;15.52;2.92;;;;;;;;;;5085648;28;20529;-67
2021/05/12 09:59:07;;;;;;;15.02;2.35;;;;;;;;;;5079539;28;20069;-67
2021/05/12 10:01:43;;;;;;;17.05;4.10;;;;;;;;;;5077373;28;20101;-68
2021/05/12 10:04:21;;;;;;;14.25;3.92;;;;;;;;;;5086761;28;20047;-67
2021/05/12 10:06:47;;;;;;;16.30;2.35;;;;;;;;;;5086875;28;20020;-67
2021/05/12 10:09:17;;;;;;;17.90;2.88;;;;;;;;;;5084753;28;20578;-67
2021/05/12 10:11:44;;;;;;;18.75;2.83;;;;;;;;;;5084439;28;20020;-69
2021/05/12 10:14:10;;;;;;;11.30;2.67;;;;;;;;;;5089239;28;20480;-68
2021/05/12 10:16:36;;;;;;;20.95;3.83;;;;;;;;;;5087667;28;20023;-67
2021/05/12 10:19:02;;;;;;;16.60;2.45;;;;;;;;;;5079193;28;20024;-68
2021/05/12 10:21:28;;;;;;;19.83;3.22;;;;;;;;;;5085236;28;20032;-67
2021/05/12 10:23:54;;;;;;;15.73;2.63;;;;;;;;;;5083974;28;20502;-67
2021/05/12 10:26:21;;;;;;;14.15;2.97;;;;;;;;;;5065557;28;20020;-67
2021/05/12 10:28:47;;;;;;;16.85;2.80;;;;;;;;;;5081586;28;20047;-68
2021/05/12 10:31:13;;;;;;;17.95;3.00;;;;;;;;;;5085728;28;20035;-68
2021/05/12 10:33:46;;;;;;;18.15;2.85;;;;;;;;;;5065785;28;20097;-68
2021/05/12 10:36:12;;;;;;;16.35;2.90;;;;;;;;;;5089978;28;20031;-67
2021/05/12 10:38:39;;;;;;;18.17;2.63;;;;;;;;;;5084653;28;20054;-68
2021/05/12 10:41:05;;;;;;;15.25;3.17;;;;;;;;;;5081223;28;22043;-67
2021/05/12 10:43:43;;;;;;;17.85;3.38;;;;;;;;;;5090429;28;20031;-67
2021/05/12 10:46:15;;;;;;;19.48;3.08;;;;;;;;;;5084165;28;20220;-66
2021/05/12 10:48:43;;;;;;;14.63;3.35;;;;;;;;;;5084547;28;20031;-67
2021/05/12 10:51:11;;;;;;;24.92;3.72;;;;;;;;;;5083764;28;20530;-68
2021/05/12 10:53:44;;;;;;;16.80;2.65;;;;;;;;;;5088452;28;20047;-66
2021/05/12 10:56:11;;;;;;;23.52;3.53;;;;;;;;;;5086768;28;20013;-67
2021/05/12 10:58:39;;;;;;;14.23;3.70;;;;;;;;;;5082856;28;20032;-68
2021/05/12 11:01:06;;;;;;;16.70;3.45;;;;;;;;;;5086849;28;20062;-67
2021/05/12 11:03:47;;;;;;;14.00;3.15;;;;;;;;;;5087590;28;20034;-68
2021/05/12 11:06:13;;;;;;;21.67;3.30;;;;;;;;;;5079147;28;20546;-67
2021/05/12 11:08:59;;;;;;;17.63;3.70;;;;;;;;;;5083535;28;20059;-67
2021/05/12 11:11:25;;;;;;;17.02;3.63;;;;;;;;;;5085757;28;20486;-68
2021/05/12 11:14:11;;;;;;;18.52;3.35;;;;;;;;;;5086819;28;20027;-66
2021/05/12 11:16:57;;;;;;;23.05;4.03;;;;;;;;;;5068707;28;20032;-67
2021/05/12 11:19:38;;;;;;;21.55;4.00;;;;;;;;;;5079329;28;20047;-67
2021/05/12 11:25:16;;;;;;;22.33;4.82;;;;;;;;;;5017115;28;20049;-67
2021/05/12 11:33:20;;;;;;;16.42;3.03;;;;;;;;;;5080761;28;20509;-67
2021/05/12 11:35:47;;;;;;;20.55;3.92;;;;;;;;;;5080774;28;20055;-67
2021/05/12 11:38:17;;;;;;;17.48;3.65;;;;;;;;;;5077465;28;20442;-67
2021/05/12 11:40:58;;;;;;;20.30;4.75;;;;;;;;;;5082564;28;20081;-66
2021/05/12 11:43:41;;;;;;;17.42;3.58;;;;;;;;;;5081309;28;20491;-67
2021/05/12 11:46:07;;;;;;;23.02;3.85;;;;;;;;;;5080867;28;20440;-67
2021/05/12 11:48:37;;;;;;;19.42;3.72;;;;;;;;;;5079732;28;20020;-68
2021/05/12 11:51:04;;;;;;;19.70;3.40;;;;;;;;;;5081062;28;20020;-67
2021/05/12 11:53:30;;;;;;;14.40;2.90;;;;;;;;;;5061350;28;20116;-67
2021/05/12 11:55:57;;;;;;;19.40;3.35;;;;;;;;;;5079178;28;20028;-67
2021/05/12 11:58:24;;;;;;;16.55;4.30;;;;;;;;;;5078576;28;20050;-67
2021/05/12 12:00:50;;;;;;;21.65;4.63;;;;;;;;;;5084276;28;20533;-67
2021/05/12 12:03:18;;;;;;;19.90;4.05;;;;;;;;;;5084076;28;20506;-65
2021/05/12 12:05:55;;;;;;;19.13;2.78;;;;;;;;;;5083956;28;20028;-67
2021/05/12 12:08:22;;;;;;;23.13;4.50;;;;;;;;;;5062423;28;20403;-67
2021/05/12 12:10:48;;;;;;;17.33;3.50;;;;;;;;;;5085504;28;20032;-66
2021/05/12 12:13:15;;;;;;;14.57;3.75;;;;;;;;;;5088167;28;20567;-67
2021/05/12 12:15:42;;;;;;;16.08;4.03;;;;;;;;;;5081173;28;20020;-67
2021/05/12 12:18:08;;;;;;;17.80;3.10;;;;;;;;;;5082806;28;20021;-67
2021/05/12 12:20:35;;;;;;;15.27;3.20;;;;;;;;;;5092452;28;20048;-66
2021/05/12 12:23:02;;;;;;;21.10;4.40;;;;;;;;;;5091521;28;20039;-66
2021/05/12 12:25:52;;;;;;;23.23;4.25;;;;;;;;;;5091426;28;20032;-65
2021/05/12 12:28:18;;;;;;;19.45;3.05;;;;;;;;;;5082256;28;20031;-67
2021/05/12 12:30:44;;;;;;;17.83;4.18;;;;;;;;;;5091236;28;20036;-67
2021/05/12 12:33:10;;;;;;;19.67;5.07;;;;;;;;;;5089711;28;20147;-67
2021/05/12 12:35:36;;;;;;;21.08;4.15;;;;;;;;;;5069816;28;20020;-67
2021/05/12 12:38:12;;;;;;;18.00;3.70;;;;;;;;;;5084950;28;20036;-67
2021/05/12 12:40:44;;;;;;;16.20;3.38;;;;;;;;;;5083754;28;20047;-68
2021/05/12 12:43:10;;;;;;;13.55;2.50;;;;;;;;;;5090250;28;20026;-66
2021/05/12 12:45:36;;;;;;;12.68;1.98;;;;;;;;;;5082809;28;20479;-67
2021/05/12 12:48:04;;;;;;;12.88;2.40;;;;;;;;;;5080744;28;20024;-66
2021/05/12 12:50:32;;;;;;;13.20;2.13;;;;;;;;;;5091315;28;20020;-66
2021/05/12 12:52:58;;;;;;;7.78;1.80;;;;;;;;;;5092924;28;20395;-67
2021/05/12 12:55:25;;;;;;;10.50;1.80;;;;;;;;;;5092220;28;20028;-65
2021/05/12 12:57:54;;;;;;;9.93;2.08;;;;;;;;;;5085231;28;20062;-66
2021/05/12 13:00:24;;;;;;;8.68;1.70;;;;;;;;;;5088947;28;20040;-66
2021/05/12 13:03:10;;;;;;;10.13;1.92;;;;;;;;;;5088310;28;22395;-66
2021/05/12 13:05:39;;;;;;;13.32;3.55;;;;;;;;;;5079851;28;20082;-66
2021/05/12 13:08:13;;;;;;;11.13;1.98;;;;;;;;;;5089273;28;20071;-66
2021/05/12 13:10:39;;;;;;;10.80;2.20;;;;;;;;;;5073024;28;20024;-67
2021/05/12 13:13:05;;;;;;;12.90;2.28;;;;;;;;;;5090162;28;20037;-66
2021/05/12 13:15:33;;;;;;;8.77;1.65;;;;;;;;;;5088970;28;20111;-67
2021/05/12 13:18:00;;;;;;;12.25;2.28;;;;;;;;;;5086285;28;20020;-66
2021/05/12 13:20:27;;;;;;;15.77;2.75;;;;;;;;;;5091980;28;20101;-66
2021/05/12 13:23:00;;;;;;;16.70;4.15;;;;;;;;;;5087374;28;20035;-67
2021/05/12 13:25:27;;;;;;;13.75;2.30;;;;;;;;;;5086291;28;20402;-66
2021/05/12 13:27:53;;;;;;;14.25;3.25;;;;;;;;;;5079218;28;20027;-67
2021/05/12 13:30:19;;;;;;;9.95;2.20;;;;;;;;;;5081436;28;20028;-67
2021/05/12 13:32:45;;;;;;;6.88;1.42;;;;;;;;;;5074008;28;20043;-67
2021/05/12 13:35:11;;;;;;;11.02;2.70;;;;;;;;;;5089715;28;20032;-67
2021/05/12 13:37:41;;;;;;;11.93;2.08;;;;;;;;;;5089227;28;20023;-67
2021/05/12 13:40:07;;;;;;;12.23;2.78;;;;;;;;;;5090971;28;20032;-67
2021/05/12 13:42:34;;;;;;;14.20;2.33;;;;;;;;;;5066383;28;20047;-67
2021/05/12 13:45:01;;;;;;;14.25;2.63;;;;;;;;;;5089159;28;20046;-67
2021/05/12 13:47:27;;;;;;;11.18;2.55;;;;;;;;;;5085282;28;20451;-67
2021/05/12 13:49:53;;;;;;;21.33;2.80;;;;;;;;;;5067407;28;20619;-67
2021/05/12 13:52:32;;;;;;;17.65;2.90;;;;;;;;;;5077246;28;20475;-67
2021/05/12 13:55:14;;;;;;;14.35;3.67;;;;;;;;;;5080930;28;20031;-67
2021/05/12 14:00:45;;;;;;;14.85;3.22;;;;;;;;;;5076428;28;19920;-68
2021/05/12 14:03:02;;;;;;;16.08;2.50;;;;;;;;;;5077570;28;20031;-67
2021/05/12 14:05:31;;;;;;;14.65;2.50;;;;;;;;;;5067874;28;20035;-68
2021/05/12 14:07:57;;;;;;;11.30;2.15;;;;;;;;;;5076969;28;20024;-67
2021/05/12 14:10:25;;;;;;;10.73;2.20;;;;;;;;;;5091324;28;20028;-68
2021/05/12 14:12:53;;;;;;;15.13;2.63;;;;;;;;;;5089464;28;20306;-69
2021/05/12 14:18:07;;;;;;;13.32;2.83;;;;;;;;;;5083421;28;20077;-71
2021/05/12 14:20:33;;;;;;;14.00;2.80;;;;;;;;;;5089035;28;20032;-69
2021/05/12 14:22:59;;;;;;;11.15;2.85;;;;;;;;;;5085482;28;20023;-70
2021/05/12 14:25:25;;;;;;;9.07;2.30;;;;;;;;;;5069926;28;20036;-70
2021/05/12 14:27:52;;;;;;;11.85;2.13;;;;;;;;;;5076834;28;20034;-69
2021/05/12 14:30:18;;;;;;;12.15;3.05;;;;;;;;;;5086630;28;20020;-71
2021/05/12 14:32:44;;;;;;;15.30;3.38;;;;;;;;;;5083031;28;20036;-70
2021/05/12 14:35:11;;;;;;;15.40;3.20;;;;;;;;;;5082636;28;20032;-70
2021/05/12 14:37:37;;;;;;;12.98;2.45;;;;;;;;;;5082322;28;20052;-69
2021/05/12 14:40:03;;;;;;;11.63;2.42;;;;;;;;;;5083790;28;20036;-70
2021/05/12 14:42:29;;;;;;;11.48;2.70;;;;;;;;;;5081586;28;20039;-69
2021/05/12 14:44:55;;;;;;;9.73;2.28;;;;;;;;;;5068278;28;20031;-70